sensor_id;sensor_type;location;lat;lon;timestamp;pressure;altitude;pressure_sealevel;temperature;humidity
58975;BME280;44751;52.236;5.178;2023-06-10T00:00:45;101427.16;;;21.31;95.80
58975;BME280;44751;52.236;5.178;2023-06-10T00:03:12;101426.56;;;21.29;94.89
58975;BME280;44751;52.236;5.178;2023-06-10T00:05:42;101414.13;;;21.26;94.73
58975;BME280;44751;52.236;5.178;2023-06-10T00:08:10;101425.09;;;21.14;94.95
58975;BME280;44751;52.236;5.178;2023-06-10T00:10:41;101424.50;;;21.12;94.84
58975;BME280;44751;52.236;5.178;2023-06-10T00:13:10;101423.34;;;21.20;94.22
58975;BME280;44751;52.236;5.178;2023-06-10T00:15:48;101428.69;;;21.15;93.99
58975;BME280;44751;52.236;5.178;2023-06-10T00:18:14;101425.09;;;21.14;93.87
58975;BME280;44751;52.236;5.178;2023-06-10T00:20:42;101423.78;;;21.05;94.35
58975;BME280;44751;52.236;5.178;2023-06-10T00:23:09;101423.41;;;21.01;94.97
58975;BME280;44751;52.236;5.178;2023-06-10T00:25:41;101423.06;;;20.98;94.49
58975;BME280;44751;52.236;5.178;2023-06-10T00:28:08;101429.31;;;20.86;94.49
58975;BME280;44751;52.236;5.178;2023-06-10T08:39:46;101551.19;;;26.93;74.42
58975;BME280;44751;52.236;5.178;2023-06-10T08:42:33;101543.78;;;27.15;73.33
58975;BME280;44751;52.236;5.178;2023-06-10T08:45:03;101551.28;;;27.40;74.06
58975;BME280;44751;52.236;5.178;2023-06-10T08:47:32;101554.00;;;27.35;72.27
58975;BME280;44751;52.236;5.178;2023-06-10T08:50:05;101550.97;;;27.31;70.48
58975;BME280;44751;52.236;5.178;2023-06-10T08:52:42;101554.56;;;27.27;71.14
58975;BME280;44751;52.236;5.178;2023-06-10T08:55:18;101547.94;;;27.38;69.64
58975;BME280;44751;52.236;5.178;2023-06-10T08:57:54;101549.59;;;27.44;71.45
58975;BME280;44751;52.236;5.178;2023-06-10T09:00:21;101554.81;;;27.98;70.71
58975;BME280;44751;52.236;5.178;2023-06-10T09:02:48;101555.00;;;28.38;70.47
58975;BME280;44751;52.236;5.178;2023-06-10T09:05:15;101554.19;;;28.32;69.11
58975;BME280;44751;52.236;5.178;2023-06-10T09:07:45;101560.59;;;28.28;67.91
58975;BME280;44751;52.236;5.178;2023-06-10T09:10:14;101553.97;;;28.08;66.19
58975;BME280;44751;52.236;5.178;2023-06-10T09:12:41;101560.03;;;28.26;67.67
58975;BME280;44751;52.236;5.178;2023-06-10T09:15:08;101554.31;;;28.67;67.20
58975;BME280;44751;52.236;5.178;2023-06-10T09:17:37;101546.88;;;28.57;67.91
58975;BME280;44751;52.236;5.178;2023-06-10T09:20:08;101548.94;;;28.92;67.43
58975;BME280;44751;52.236;5.178;2023-06-10T09:22:35;101555.97;;;28.68;67.12
58975;BME280;44751;52.236;5.178;2023-06-10T09:25:03;101546.91;;;29.03;65.89
58975;BME280;44751;52.236;5.178;2023-06-10T09:27:30;101548.69;;;29.28;64.17
58975;BME280;44751;52.236;5.178;2023-06-10T09:30:00;101556.84;;;29.09;61.76
58975;BME280;44751;52.236;5.178;2023-06-10T09:32:26;101548.56;;;29.73;63.46
58975;BME280;44751;52.236;5.178;2023-06-10T09:34:53;101554.28;;;30.12;62.58
58975;BME280;44751;52.236;5.178;2023-06-10T09:37:23;101555.84;;;30.23;60.93
58975;BME280;44751;52.236;5.178;2023-06-10T09:40:04;101553.94;;;30.19;61.87
58975;BME280;44751;52.236;5.178;2023-06-10T09:42:33;101552.59;;;30.60;60.88
58975;BME280;44751;52.236;5.178;2023-06-10T09:45:01;101552.03;;;30.38;59.76
58975;BME280;44751;52.236;5.178;2023-06-10T09:47:27;101550.31;;;30.86;58.09
58975;BME280;44751;52.236;5.178;2023-06-10T09:49:54;101550.22;;;30.28;59.14
58975;BME280;44751;52.236;5.178;2023-06-10T09:52:25;101552.63;;;30.35;58.30
58975;BME280;44751;52.236;5.178;2023-06-10T09:54:53;101547.59;;;30.37;58.06
58975;BME280;44751;52.236;5.178;2023-06-10T09:57:21;101551.94;;;30.68;58.89
58975;BME280;44751;52.236;5.178;2023-06-10T09:59:48;101549.75;;;30.65;56.48
58975;BME280;44751;52.236;5.178;2023-06-10T10:02:21;101556.09;;;30.90;58.00
58975;BME280;44751;52.236;5.178;2023-06-10T10:04:48;101548.13;;;30.83;54.45
58975;BME280;44751;52.236;5.178;2023-06-10T10:07:14;101556.84;;;30.96;55.50
58975;BME280;44751;52.236;5.178;2023-06-10T10:09:42;101547.72;;;31.28;56.11
58975;BME280;44751;52.236;5.178;2023-06-10T10:12:13;101554.59;;;31.50;53.56
58975;BME280;44751;52.236;5.178;2023-06-10T10:14:46;101546.25;;;31.31;53.84
58975;BME280;44751;52.236;5.178;2023-06-10T10:17:14;101537.53;;;31.38;56.01
58975;BME280;44751;52.236;5.178;2023-06-10T10:20:00;101547.84;;;31.71;53.77
58975;BME280;44751;52.236;5.178;2023-06-10T10:22:38;101533.94;;;31.18;53.23
58975;BME280;44751;52.236;5.178;2023-06-10T10:25:11;101539.03;;;31.30;53.69
58975;BME280;44751;52.236;5.178;2023-06-10T10:27:54;101538.94;;;30.83;54.07
58975;BME280;44751;52.236;5.178;2023-06-10T10:30:30;101540.97;;;30.96;52.18
58975;BME280;44751;52.236;5.178;2023-06-10T10:35:51;101535.66;;;31.66;54.29
58975;BME280;44751;52.236;5.178;2023-06-10T10:38:21;101549.19;;;31.87;52.37
58975;BME280;44751;52.236;5.178;2023-06-10T10:40:49;101531.88;;;31.24;53.68
58975;BME280;44751;52.236;5.178;2023-06-10T10:43:16;101537.91;;;31.64;53.14
58975;BME280;44751;52.236;5.178;2023-06-10T10:45:46;101532.34;;;31.78;50.86
58975;BME280;44751;52.236;5.178;2023-06-10T10:48:24;101538.53;;;31.75;51.29
58975;BME280;44751;52.236;5.178;2023-06-10T10:51:01;101537.13;;;32.20;50.65
58975;BME280;44751;52.236;5.178;2023-06-10T10:53:28;101535.84;;;31.70;50.68
58975;BME280;44751;52.236;5.178;2023-06-10T10:56:16;101528.69;;;31.50;51.42
58975;BME280;44751;52.236;5.178;2023-06-10T10:59:04;101527.66;;;31.26;51.69
58975;BME280;44751;52.236;5.178;2023-06-10T11:01:43;101512.91;;;31.26;50.16
58975;BME280;44751;52.236;5.178;2023-06-10T11:04:12;101525.09;;;31.30;49.73
58975;BME280;44751;52.236;5.178;2023-06-10T11:07:22;101518.66;;;31.49;49.54
58975;BME280;44751;52.236;5.178;2023-06-10T11:10:13;101507.88;;;32.03;48.72
58975;BME280;44751;52.236;5.178;2023-06-10T11:12:53;101517.16;;;31.71;47.81
58975;BME280;44751;52.236;5.178;2023-06-10T12:37:03;101461.72;;;32.48;39.72
58975;BME280;44751;52.236;5.178;2023-06-10T12:39:40;101455.50;;;32.00;40.70
58975;BME280;44751;52.236;5.178;2023-06-10T12:42:22;101455.03;;;32.35;39.82
58975;BME280;44751;52.236;5.178;2023-06-10T12:45:03;101462.91;;;32.19;39.39
58975;BME280;44751;52.236;5.178;2023-06-10T12:47:38;101453.38;;;32.20;39.77
58975;BME280;44751;52.236;5.178;2023-06-10T12:52:23;101451.75;;;32.79;40.22
58975;BME280;44751;52.236;5.178;2023-06-10T12:54:50;101454.63;;;32.88;39.72
58975;BME280;44751;52.236;5.178;2023-06-10T12:57:17;101450.38;;;32.90;38.81
58975;BME280;44751;52.236;5.178;2023-06-10T12:59:46;101454.78;;;33.05;39.20
58975;BME280;44751;52.236;5.178;2023-06-10T13:02:20;101449.22;;;32.45;38.51
58975;BME280;44751;52.236;5.178;2023-06-10T15:05:06;101405.16;;;31.49;37.95
58975;BME280;44751;52.236;5.178;2023-06-10T15:07:43;101401.84;;;31.75;38.23
58975;BME280;44751;52.236;5.178;2023-06-10T15:10:10;101409.13;;;31.90;37.23
58975;BME280;44751;52.236;5.178;2023-06-10T16:07:19;101373.34;;;31.78;35.41
58975;BME280;44751;52.236;5.178;2023-06-10T16:09:55;101391.53;;;31.76;35.39
58975;BME280;44751;52.236;5.178;2023-06-10T16:12:24;101375.34;;;31.36;34.88
58975;BME280;44751;52.236;5.178;2023-06-10T16:15:00;101373.84;;;31.24;35.06
58975;BME280;44751;52.236;5.178;2023-06-10T16:17:28;101364.22;;;31.16;35.89
58975;BME280;44751;52.236;5.178;2023-06-10T18:16:56;101385.41;;;29.15;36.44
58975;BME280;44751;52.236;5.178;2023-06-10T18:19:36;101382.97;;;29.08;36.26
58975;BME280;44751;52.236;5.178;2023-06-10T18:40:02;101395.25;;;28.27;37.40
58975;BME280;44751;52.236;5.178;2023-06-10T19:39:16;101437.34;;;26.59;39.27
58975;BME280;44751;52.236;5.178;2023-06-10T19:41:45;101439.56;;;26.56;39.09
58975;BME280;44751;52.236;5.178;2023-06-10T19:44:13;101437.84;;;26.40;39.39
58975;BME280;44751;52.236;5.178;2023-06-10T19:46:41;101444.75;;;26.32;40.04
58975;BME280;44751;52.236;5.178;2023-06-10T19:49:07;101449.41;;;26.26;39.72
58975;BME280;44751;52.236;5.178;2023-06-10T19:51:34;101448.34;;;26.27;39.78
58975;BME280;44751;52.236;5.178;2023-06-10T19:54:04;101447.44;;;26.11;40.69
58975;BME280;44751;52.236;5.178;2023-06-10T19:56:33;101454.03;;;26.10;40.33
58975;BME280;44751;52.236;5.178;2023-06-10T19:59:14;101458.44;;;26.01;39.67
58975;BME280;44751;52.236;5.178;2023-06-10T20:01:43;101450.94;;;25.91;40.24
58975;BME280;44751;52.236;5.178;2023-06-10T20:04:29;101459.81;;;25.93;40.26
58975;BME280;44751;52.236;5.178;2023-06-10T20:06:58;101453.69;;;25.91;39.69
58975;BME280;44751;52.236;5.178;2023-06-10T20:09:25;101459.97;;;25.76;39.83
58975;BME280;44751;52.236;5.178;2023-06-10T20:11:52;101455.25;;;25.71;40.53
58975;BME280;44751;52.236;5.178;2023-06-10T20:14:20;101457.97;;;25.61;40.70
58975;BME280;44751;52.236;5.178;2023-06-10T20:17:00;101464.16;;;25.46;40.60
58975;BME280;44751;52.236;5.178;2023-06-10T20:19:29;101465.25;;;25.39;40.44
58975;BME280;44751;52.236;5.178;2023-06-10T20:21:56;101476.19;;;25.29;41.58
58975;BME280;44751;52.236;5.178;2023-06-10T20:24:22;101469.47;;;25.14;44.62
58975;BME280;44751;52.236;5.178;2023-06-10T20:26:49;101465.38;;;25.22;42.12
58975;BME280;44751;52.236;5.178;2023-06-10T20:29:20;101473.47;;;24.96;43.08
58975;BME280;44751;52.236;5.178;2023-06-10T20:31:47;101480.97;;;24.79;44.96
58975;BME280;44751;52.236;5.178;2023-06-10T20:34:14;101477.06;;;24.74;43.97
58975;BME280;44751;52.236;5.178;2023-06-10T20:36:41;101485.09;;;24.26;54.68
58975;BME280;44751;52.236;5.178;2023-06-10T20:39:07;101491.41;;;24.49;45.69
58975;BME280;44751;52.236;5.178;2023-06-10T20:41:36;101491.50;;;24.54;49.71
58975;BME280;44751;52.236;5.178;2023-06-10T20:44:04;101483.25;;;24.59;47.20
58975;BME280;44751;52.236;5.178;2023-06-10T20:46:30;101485.63;;;24.50;46.99
58975;BME280;44751;52.236;5.178;2023-06-10T20:48:57;101492.03;;;24.56;45.96
58975;BME280;44751;52.236;5.178;2023-06-10T20:51:24;101489.97;;;24.41;50.68
58975;BME280;44751;52.236;5.178;2023-06-10T20:53:53;101499.06;;;24.42;47.66
58975;BME280;44751;52.236;5.178;2023-06-10T20:56:25;101490.72;;;24.36;46.24
58975;BME280;44751;52.236;5.178;2023-06-10T20:58:52;101497.97;;;24.43;45.61
58975;BME280;44751;52.236;5.178;2023-06-10T21:01:19;101499.59;;;24.39;45.78
58975;BME280;44751;52.236;5.178;2023-06-10T21:03:50;101499.88;;;24.42;44.68
58975;BME280;44751;52.236;5.178;2023-06-10T21:06:23;101499.25;;;24.13;47.96
58975;BME280;44751;52.236;5.178;2023-06-10T21:08:49;101494.06;;;24.16;47.40
58975;BME280;44751;52.236;5.178;2023-06-10T21:11:17;101502.28;;;24.33;45.17
58975;BME280;44751;52.236;5.178;2023-06-10T21:13:43;101501.19;;;24.34;44.98
58975;BME280;44751;52.236;5.178;2023-06-10T21:16:13;101498.78;;;24.21;45.62
58975;BME280;44751;52.236;5.178;2023-06-10T21:18:40;101494.94;;;23.99;45.72
58975;BME280;44751;52.236;5.178;2023-06-10T21:21:07;101505.16;;;24.04;46.19
58975;BME280;44751;52.236;5.178;2023-06-10T21:23:33;101501.91;;;24.07;45.15
58975;BME280;44751;52.236;5.178;2023-06-10T21:26:00;101502.28;;;23.94;46.99
58975;BME280;44751;52.236;5.178;2023-06-10T21:28:33;101498.81;;;23.81;47.42
58975;BME280;44751;52.236;5.178;2023-06-10T21:30:59;101505.97;;;23.82;47.38
58975;BME280;44751;52.236;5.178;2023-06-10T21:33:29;101506.03;;;23.88;46.88
58975;BME280;44751;52.236;5.178;2023-06-10T21:35:55;101507.81;;;23.77;47.28
58975;BME280;44751;52.236;5.178;2023-06-10T21:38:24;101509.22;;;23.79;46.88
58975;BME280;44751;52.236;5.178;2023-06-10T21:40:51;101509.78;;;23.59;50.37
58975;BME280;44751;52.236;5.178;2023-06-10T21:43:17;101511.50;;;23.65;47.38
58975;BME280;44751;52.236;5.178;2023-06-10T21:45:44;101516.94;;;23.60;47.91
58975;BME280;44751;52.236;5.178;2023-06-10T21:48:11;101512.78;;;23.57;48.09
58975;BME280;44751;52.236;5.178;2023-06-10T21:50:40;101513.00;;;23.39;49.08
